Time;durP1;ratioP1;P1;durP2;ratioP2;P2;SDS_P1;SDS_P2;PMS_P1;PMS_P2;Temp;Humidity;BMP_temperature;BMP_pressure;BME280_temperature;BME280_humidity;BME280_pressure;Samples;Min_cycle;Max_cycle;Signal;HPM_P1;HPM_P2
2022/11/12 00:00:07;;;;;;;9.85;6.55;;;;;;;7.77;81.68;101142.84;340528;28;2161;-72
2022/11/12 00:00:19;;;;;;;10.63;6.63;;;;;;;7.78;81.53;101144.56;340554;29;1211;-72
2022/11/12 00:00:31;;;;;;;11.50;6.25;;;;;;;7.75;81.38;101144.56;341008;29;1254;-72
2022/11/12 00:00:43;;;;;;;12.40;6.43;;;;;;;7.76;81.51;101145.44;339548;29;1085;-72
2022/11/12 00:00:57;;;;;;;12.18;6.50;;;;;;;7.78;81.60;101143.72;339988;28;1508;-71
2022/11/12 00:01:10;;;;;;;9.27;6.40;;;;;;;7.76;81.75;101145.44;344080;28;1070;-72
2022/11/12 00:01:22;;;;;;;9.93;6.55;;;;;;;7.77;81.85;101144.59;345016;28;1362;-72
2022/11/12 00:01:34;;;;;;;12.85;6.80;;;;;;;7.70;81.64;101145.41;342127;28;1132;-71
2022/11/12 00:01:46;;;;;;;12.05;6.75;;;;;;;7.71;81.60;101147.16;343546;28;1823;-72
2022/11/12 00:01:58;;;;;;;10.55;6.55;;;;;;;7.69;81.73;101143.69;343472;28;1564;-72
2022/11/12 00:02:11;;;;;;;11.73;6.43;;;;;;;7.73;81.99;101142.84;344351;28;1477;-73
2022/11/12 00:02:23;;;;;;;10.40;6.40;;;;;;;7.75;81.61;101148.88;343407;28;2157;-74
2022/11/12 00:02:35;;;;;;;10.10;6.30;;;;;;;7.75;81.62;101148.88;343451;28;1070;-74
2022/11/12 00:02:46;;;;;;;9.25;6.47;;;;;;;7.76;81.80;101145.44;343473;28;1067;-73
2022/11/12 00:02:59;;;;;;;9.07;6.57;;;;;;;7.78;81.78;101146.28;343704;28;3442;-73
2022/11/12 00:03:11;;;;;;;8.30;6.55;;;;;;;7.79;81.78;101146.31;344166;28;1863;-73
2022/11/12 00:03:24;;;;;;;8.32;6.00;;;;;;;7.80;81.49;101144.56;342162;28;1292;-73
2022/11/12 00:03:36;;;;;;;11.85;6.43;;;;;;;7.84;81.28;101148.91;342348;28;1689;-73
2022/11/12 00:03:48;;;;;;;12.13;6.60;;;;;;;7.83;81.48;101146.28;342163;28;1218;-72
2022/11/12 00:04:00;;;;;;;11.27;6.68;;;;;;;7.76;81.68;101141.09;342139;28;1942;-72
2022/11/12 00:04:12;;;;;;;11.52;6.88;;;;;;;7.63;81.13;101143.69;343952;28;1714;-73
2022/11/12 00:04:24;;;;;;;13.80;7.25;;;;;;;7.60;81.54;101145.38;343335;28;1261;-72
2022/11/12 00:04:36;;;;;;;13.27;7.10;;;;;;;7.65;81.61;101147.13;343250;28;1052;-72
2022/11/12 00:04:48;;;;;;;13.05;6.78;;;;;;;7.64;81.70;101135.91;343162;28;2119;-75
2022/11/12 00:05:00;;;;;;;11.50;6.90;;;;;;;7.56;81.83;101148.81;343194;28;1756;-73
2022/11/12 00:05:12;;;;;;;13.45;7.03;;;;;;;7.52;82.06;101141.03;344165;28;2020;-72
2022/11/12 00:05:25;;;;;;;14.73;7.05;;;;;;;7.49;82.20;101141.88;343005;28;1291;-72
2022/11/12 00:05:37;;;;;;;13.85;6.65;;;;;;;7.54;82.22;101140.16;342825;28;1505;-72
2022/11/12 00:05:49;;;;;;;14.68;6.85;;;;;;;7.57;82.22;101140.19;342686;28;1640;-72
2022/11/12 00:06:02;;;;;;;10.93;6.40;;;;;;;7.58;82.62;101135.88;343331;28;1767;-72
2022/11/12 00:06:14;;;;;;;10.20;6.53;;;;;;;7.60;82.42;101140.19;342601;28;810;-72
2022/11/12 00:06:26;;;;;;;10.68;7.00;;;;;;;7.64;82.47;101135.03;342317;28;1099;-72
2022/11/12 00:06:38;;;;;;;12.13;7.03;;;;;;;7.66;82.30;101141.94;342343;28;1201;-72
2022/11/12 00:06:50;;;;;;;13.70;6.95;;;;;;;7.69;82.47;101141.97;342060;28;2072;-72
2022/11/12 00:07:02;;;;;;;12.05;6.80;;;;;;;7.61;81.76;101141.06;342320;28;2156;-72
2022/11/12 00:07:14;;;;;;;11.43;6.68;;;;;;;7.65;82.12;101144.53;342892;28;1335;-72
2022/11/12 00:07:26;;;;;;;10.52;6.68;;;;;;;7.66;82.09;101139.34;343530;28;1208;-72
2022/11/12 00:07:38;;;;;;;12.73;6.38;;;;;;;7.67;82.36;101140.25;343831;28;1912;-73
2022/11/12 00:07:50;;;;;;;16.50;6.38;;;;;;;7.69;82.26;101134.19;343670;28;1042;-72
2022/11/12 00:08:02;;;;;;;17.10;6.18;;;;;;;7.69;81.78;101134.19;342667;28;1435;-72
2022/11/12 00:08:14;;;;;;;13.15;6.20;;;;;;;7.68;81.85;101136.78;343318;28;1307;-72
2022/11/12 00:08:26;;;;;;;12.98;6.53;;;;;;;7.66;82.13;101133.31;343457;28;1106;-72
2022/11/12 00:08:38;;;;;;;12.20;6.57;;;;;;;7.66;81.88;101141.09;342132;28;1070;-72
2022/11/12 00:08:50;;;;;;;14.98;6.65;;;;;;;7.68;82.19;101139.38;342630;28;1901;-73
2022/11/12 00:09:02;;;;;;;12.70;6.57;;;;;;;7.60;82.20;101135.00;342916;28;1807;-73
2022/11/12 00:09:14;;;;;;;14.85;6.40;;;;;;;7.51;82.22;101134.16;343253;28;1900;-73
2022/11/12 00:09:26;;;;;;;18.15;6.47;;;;;;;7.53;82.29;101138.47;343700;28;1789;-73
2022/11/12 00:09:38;;;;;;;18.87;6.47;;;;;;;7.55;82.63;101136.75;343525;28;1034;-73
2022/11/12 00:09:50;;;;;;;12.88;6.30;;;;;;;7.56;82.05;101137.59;343614;28;1149;-73
2022/11/12 00:10:03;;;;;;;12.05;6.43;;;;;;;7.60;82.30;101139.34;342977;28;1825;-73
2022/11/12 00:10:15;;;;;;;9.45;5.70;;;;;;;7.64;82.29;101137.63;342706;28;1702;-74
2022/11/12 00:10:28;;;;;;;10.63;5.78;;;;;;;7.63;82.25;101134.19;342494;28;1062;-72
2022/11/12 00:10:40;;;;;;;11.13;6.25;;;;;;;7.64;82.38;101140.22;342287;28;1831;-73
2022/11/12 00:10:52;;;;;;;11.88;6.35;;;;;;;7.66;82.30;101138.50;343651;28;1135;-72
2022/11/12 00:11:04;;;;;;;9.63;6.03;;;;;;;7.64;82.09;101135.91;342717;28;2357;-72
2022/11/12 00:11:16;;;;;;;13.15;6.18;;;;;;;7.62;81.98;101142.78;343249;28;1714;-72
2022/11/12 00:11:28;;;;;;;13.43;6.18;;;;;;;7.66;81.90;101133.31;342371;28;1051;-72
2022/11/12 00:11:40;;;;;;;8.63;5.80;;;;;;;7.63;81.81;101134.19;342167;28;1864;-73
2022/11/12 00:11:52;;;;;;;8.32;5.68;;;;;;;7.62;82.05;101142.78;342786;28;1868;-73
2022/11/12 00:12:04;;;;;;;9.82;5.90;;;;;;;7.62;82.15;101141.94;342618;28;726;-73
2022/11/12 00:12:16;;;;;;;9.90;6.00;;;;;;;7.63;82.26;101143.69;342837;28;1202;-73
2022/11/12 00:12:28;;;;;;;11.27;6.13;;;;;;;7.62;82.26;101145.38;343721;28;1058;-73
2022/11/12 00:12:40;;;;;;;12.70;6.35;;;;;;;7.63;82.31;101141.09;342928;28;1888;-72
2022/11/12 00:12:53;;;;;;;13.93;6.88;;;;;;;7.64;82.44;101142.81;342807;28;1662;-72
2022/11/12 00:13:05;;;;;;;11.48;7.18;;;;;;;7.54;82.12;101140.16;342607;28;1493;-72
2022/11/12 00:13:17;;;;;;;10.70;6.82;;;;;;;7.44;82.16;101143.59;343637;28;1820;-73
2022/11/12 00:13:29;;;;;;;9.65;6.18;;;;;;;7.42;82.54;101139.28;343936;28;1237;-72
2022/11/12 00:13:41;;;;;;;10.88;6.22;;;;;;;7.35;82.73;101143.56;343716;28;1289;-72
2022/11/12 00:13:53;;;;;;;12.48;6.50;;;;;;;7.33;83.12;101134.94;343843;28;1058;-72
2022/11/12 00:14:05;;;;;;;13.07;6.40;;;;;;;7.32;83.14;101138.34;343179;28;1896;-72
2022/11/12 00:14:17;;;;;;;16.02;6.25;;;;;;;7.35;83.49;101144.41;343372;28;1909;-72
2022/11/12 00:14:29;;;;;;;15.50;6.43;;;;;;;7.38;83.32;101148.72;342604;28;1051;-72
2022/11/12 00:14:41;;;;;;;15.68;6.68;;;;;;;7.40;83.15;101141.84;342540;28;1926;-73
2022/11/12 00:14:53;;;;;;;12.75;6.57;;;;;;;7.44;83.04;101140.13;342657;28;1087;-73
2022/11/12 00:15:06;;;;;;;13.77;6.75;;;;;;;7.45;83.19;101145.31;343320;28;1068;-73
2022/11/12 00:15:18;;;;;;;13.93;6.63;;;;;;;7.49;82.84;101141.88;344782;28;1366;-72
2022/11/12 00:15:30;;;;;;;11.65;6.53;;;;;;;7.52;83.16;101141.03;342900;28;1796;-72
2022/11/12 00:15:42;;;;;;;10.30;6.50;;;;;;;7.53;82.80;101133.28;343222;28;1940;-72
2022/11/12 00:15:54;;;;;;;9.25;6.45;;;;;;;7.54;83.03;101140.16;342198;28;1219;-73
2022/11/12 00:16:07;;;;;;;8.40;6.65;;;;;;;7.55;82.95;101141.91;342277;28;1350;-72
2022/11/12 00:16:19;;;;;;;8.43;6.13;;;;;;;7.57;82.57;101140.19;342322;28;1727;-72
2022/11/12 00:16:31;;;;;;;11.80;5.97;;;;;;;7.57;82.70;101140.19;342498;28;1112;-72
2022/11/12 00:16:43;;;;;;;13.82;6.28;;;;;;;7.56;82.43;101138.44;340911;28;1230;-72
2022/11/12 00:16:55;;;;;;;13.85;6.47;;;;;;;7.57;82.60;101137.59;340995;28;1630;-72
2022/11/12 00:17:07;;;;;;;12.63;6.55;;;;;;;7.49;82.75;101141.88;339390;29;1508;-73
2022/11/12 00:17:19;;;;;;;15.65;6.85;;;;;;;7.50;82.63;101143.59;339460;29;1912;-73
2022/11/12 00:17:34;;;;;;;17.38;6.78;;;;;;;7.52;82.75;101141.88;339802;29;1713;-73
2022/11/12 00:17:47;;;;;;;17.27;6.97;;;;;;;7.49;82.79;101141.88;341222;28;2042;-73
2022/11/12 00:17:59;;;;;;;14.85;7.47;;;;;;;7.52;82.55;101139.31;340658;29;1245;-73
2022/11/12 00:18:11;;;;;;;12.43;7.25;;;;;;;7.56;82.87;101145.34;339499;29;1636;-73
2022/11/12 00:18:23;;;;;;;10.35;6.70;;;;;;;7.53;82.84;101138.47;340555;29;1542;-73
2022/11/12 00:18:35;;;;;;;16.75;6.95;;;;;;;7.51;82.87;101137.59;341591;28;1200;-74
2022/11/12 00:18:47;;;;;;;20.13;7.25;;;;;;;7.50;82.57;101142.75;343199;28;1148;-73
2022/11/12 00:18:59;;;;;;;17.35;7.20;;;;;;;7.51;82.78;101140.19;342917;28;1809;-73
2022/11/12 00:19:11;;;;;;;14.15;6.88;;;;;;;7.50;82.56;101138.44;342426;28;1756;-73
2022/11/12 00:19:23;;;;;;;9.77;6.25;;;;;;;7.54;82.72;101139.31;343264;28;1844;-73
2022/11/12 00:19:35;;;;;;;8.02;6.13;;;;;;;7.55;82.96;101139.31;343165;28;1090;-73
2022/11/12 00:19:47;;;;;;;9.32;6.20;;;;;;;7.57;82.61;101142.78;343791;28;1018;-73
2022/11/12 00:19:59;;;;;;;10.90;6.28;;;;;;;7.61;82.62;101141.06;343683;28;2053;-73
2022/11/12 00:20:11;;;;;;;12.80;6.40;;;;;;;7.64;82.46;101145.38;343163;28;1553;-73
2022/11/12 00:20:23;;;;;;;10.23;6.55;;;;;;;7.59;82.66;101143.66;342549;28;1436;-73
2022/11/12 00:20:35;;;;;;;17.52;7.05;;;;;;;7.62;82.85;101136.75;344296;28;1070;-73
2022/11/12 00:20:47;;;;;;;21.65;7.10;;;;;;;7.62;82.48;101141.94;343906;28;1160;-73
2022/11/12 00:20:59;;;;;;;21.45;6.78;;;;;;;7.64;82.61;101135.03;343081;28;1602;-73
2022/11/12 00:21:11;;;;;;;11.77;6.50;;;;;;;7.62;82.33;101136.75;343102;28;1555;-73
2022/11/12 00:21:23;;;;;;;13.77;6.65;;;;;;;7.63;82.59;101138.50;343554;28;1784;-73
2022/11/12 00:21:35;;;;;;;11.90;6.80;;;;;;;7.64;82.53;101140.22;343490;28;1620;-73
2022/11/12 00:21:47;;;;;;;12.77;6.78;;;;;;;7.64;82.56;101140.22;343890;28;1649;-73
2022/11/12 00:21:59;;;;;;;13.02;6.68;;;;;;;7.65;82.45;101139.38;343098;28;1862;-73
2022/11/12 00:22:11;;;;;;;12.98;6.35;;;;;;;7.67;82.33;101141.09;343058;28;1675;-73
2022/11/12 00:22:23;;;;;;;11.27;6.20;;;;;;;7.68;82.18;101139.38;343171;28;1913;-72
2022/11/12 00:22:36;;;;;;;15.05;6.63;;;;;;;7.65;82.25;101136.78;343916;28;1826;-72
2022/11/12 00:22:48;;;;;;;14.55;7.00;;;;;;;7.64;82.14;101137.63;343851;28;1230;-73
2022/11/12 00:23:01;;;;;;;16.42;7.40;;;;;;;7.63;82.47;101141.09;342350;28;1845;-73
2022/11/12 00:23:13;;;;;;;16.35;7.35;;;;;;;7.60;82.60;101140.19;341872;28;1507;-73
2022/11/12 00:23:25;;;;;;;14.75;7.00;;;;;;;7.64;82.42;101142.81;342284;28;1481;-73
2022/11/12 00:23:37;;;;;;;10.20;6.20;;;;;;;7.65;82.23;101141.97;342539;28;1172;-73
2022/11/12 00:23:49;;;;;;;11.32;6.15;;;;;;;7.66;82.27;101138.50;343932;28;1033;-73
2022/11/12 00:24:01;;;;;;;12.45;6.15;;;;;;;7.67;82.40;101145.41;342144;28;1913;-73
2022/11/12 00:24:13;;;;;;;13.55;6.22;;;;;;;7.64;81.92;101140.22;340808;28;1781;-73
2022/11/12 00:24:25;;;;;;;14.98;6.28;;;;;;;7.63;82.15;101146.28;341541;28;2026;-73
2022/11/12 00:24:37;;;;;;;14.45;6.25;;;;;;;7.61;82.21;101143.66;342192;28;989;-73
2022/11/12 00:24:49;;;;;;;12.68;6.35;;;;;;;7.60;82.11;101139.34;342208;28;1767;-72
2022/11/12 00:25:01;;;;;;;16.50;6.97;;;;;;;7.64;82.21;101145.38;342955;28;1062;-73
2022/11/12 00:25:14;;;;;;;14.80;6.85;;;;;;;7.66;82.00;101143.66;343060;28;1561;-73
2022/11/12 00:25:27;;;;;;;9.98;6.80;;;;;;;7.67;81.99;101148.00;343398;28;1825;-72
2022/11/12 00:25:39;;;;;;;11.00;6.65;;;;;;;7.67;81.91;101142.84;342646;28;1060;-72
2022/11/12 00:26:00;;;;;;;13.65;6.43;;;;;;;7.59;82.02;101142.78;342441;28;1876;-73
2022/11/12 00:26:12;;;;;;;18.67;7.63;;;;;;;7.59;82.26;101143.66;343219;28;1631;-72
2022/11/12 00:26:24;;;;;;;13.88;7.40;;;;;;;7.63;82.31;101138.50;343407;28;2007;-72
2022/11/12 00:26:36;;;;;;;9.25;6.43;;;;;;;7.66;82.33;101141.09;343258;28;1075;-73
2022/11/12 00:26:48;;;;;;;8.85;6.00;;;;;;;7.68;82.18;101141.94;343677;28;1015;-72
2022/11/12 00:27:01;;;;;;;8.57;6.10;;;;;;;7.60;82.00;101147.94;343551;28;1063;-72
2022/11/12 00:27:13;;;;;;;9.48;6.32;;;;;;;7.60;82.29;101149.69;342198;28;1642;-72
2022/11/12 00:27:25;;;;;;;12.65;6.90;;;;;;;7.56;82.08;101143.63;343236;28;1929;-72
2022/11/12 00:27:37;;;;;;;11.35;6.88;;;;;;;7.56;82.45;101146.22;343712;28;1225;-72
2022/11/12 00:27:49;;;;;;;9.98;7.07;;;;;;;7.52;82.78;101141.03;343887;28;1091;-72
2022/11/12 00:28:04;;;;;;;9.93;6.95;;;;;;;7.54;82.54;101140.16;342256;28;1936;-72
2022/11/12 00:28:16;;;;;;;10.75;6.38;;;;;;;7.55;82.42;101141.91;341001;28;1383;-72
2022/11/12 00:28:28;;;;;;;13.00;6.03;;;;;;;7.54;82.46;101145.34;342963;28;874;-73
2022/11/12 00:28:48;;;;;;;18.58;6.80;;;;;;;7.53;82.56;101146.22;341144;29;1098;-73
2022/11/12 00:29:00;;;;;;;17.45;6.82;;;;;;;7.56;82.68;101146.22;341043;29;1092;-73
2022/11/12 00:29:12;;;;;;;14.85;6.63;;;;;;;7.58;82.39;101141.06;340784;28;1870;-72
2022/11/12 00:29:24;;;;;;;11.23;6.50;;;;;;;7.56;82.37;101143.63;340657;29;1836;-72
2022/11/12 00:29:37;;;;;;;25.13;7.38;;;;;;;7.50;82.34;101141.00;339690;29;1039;-72
2022/11/12 00:29:49;;;;;;;24.35;7.18;;;;;;;7.54;82.26;101150.53;341459;28;1134;-72
2022/11/12 00:30:03;;;;;;;12.82;6.18;;;;;;;7.55;82.67;101147.09;342351;28;1126;-72
2022/11/12 00:30:15;;;;;;;9.05;5.97;;;;;;;7.54;82.59;101137.59;341553;28;1659;-72
2022/11/12 00:30:27;;;;;;;12.13;6.47;;;;;;;7.57;82.24;101140.19;342317;28;1910;-72
2022/11/12 00:30:40;;;;;;;16.17;6.65;;;;;;;7.50;82.25;101143.59;341038;29;1256;-73
2022/11/12 00:30:52;;;;;;;21.95;6.97;;;;;;;7.45;82.59;101145.31;340933;29;1071;-73
2022/11/12 00:31:10;;;;;;;19.40;6.95;;;;;;;7.36;82.49;101140.09;341429;29;1063;-73
2022/11/12 00:31:22;;;;;;;20.23;6.72;;;;;;;7.38;82.45;101140.97;341382;28;1454;-73
2022/11/12 00:31:34;;;;;;;25.02;7.10;;;;;;;7.40;82.79;101147.00;342389;28;1919;-73
2022/11/12 00:31:46;;;;;;;18.65;7.00;;;;;;;7.43;82.83;101144.47;342454;28;1209;-72
2022/11/12 00:31:57;;;;;;;12.18;7.07;;;;;;;7.45;83.00;101140.16;342259;28;1130;-72
2022/11/12 00:32:10;;;;;;;9.50;6.47;;;;;;;7.47;82.70;101135.84;341895;28;1895;-73
2022/11/12 00:32:22;;;;;;;8.57;6.30;;;;;;;7.47;82.77;101138.44;342942;28;1624;-73
2022/11/12 00:32:37;;;;;;;10.70;6.00;;;;;;;7.50;82.61;101141.00;343293;28;1834;-73
2022/11/12 00:32:49;;;;;;;13.70;5.97;;;;;;;7.53;82.77;101140.19;342601;28;1073;-73
2022/11/12 00:33:02;;;;;;;13.25;6.10;;;;;;;7.56;82.92;101140.19;343409;28;1690;-73
2022/11/12 00:33:14;;;;;;;17.38;6.53;;;;;;;7.56;82.40;101137.59;343365;28;1478;-73
2022/11/12 00:33:26;;;;;;;18.73;6.85;;;;;;;7.55;82.49;101141.91;343183;28;1816;-72
2022/11/12 00:33:40;;;;;;;16.70;7.00;;;;;;;7.53;82.34;101137.59;343942;28;1071;-72
2022/11/12 00:33:52;;;;;;;11.27;6.75;;;;;;;7.53;82.34;101133.28;343637;28;1349;-72
2022/11/12 00:34:04;;;;;;;9.23;6.65;;;;;;;7.52;82.56;101134.13;342225;28;1048;-72
2022/11/12 00:34:16;;;;;;;9.93;6.70;;;;;;;7.55;82.59;101141.91;341489;28;1514;-72
2022/11/12 00:34:28;;;;;;;10.88;6.63;;;;;;;7.58;82.56;101141.91;342201;28;1919;-72
2022/11/12 00:34:40;;;;;;;9.68;6.15;;;;;;;7.62;82.50;101132.44;340955;29;1476;-72
2022/11/12 00:34:52;;;;;;;8.88;6.15;;;;;;;7.62;82.58;101136.75;340961;29;1047;-72
2022/11/12 00:35:05;;;;;;;8.85;6.35;;;;;;;7.64;82.83;101140.22;341187;29;1096;-72
2022/11/12 00:35:22;;;;;;;8.23;6.20;;;;;;;7.67;82.21;101141.09;341668;28;1434;-72
2022/11/12 00:35:35;;;;;;;9.35;6.30;;;;;;;7.69;82.25;101139.38;342568;28;1872;-72
2022/11/12 00:35:47;;;;;;;9.18;6.10;;;;;;;7.72;82.18;101138.50;342232;28;1056;-72
2022/11/12 00:35:59;;;;;;;7.93;5.47;;;;;;;7.74;82.19;101134.22;342344;28;1314;-72
2022/11/12 00:36:11;;;;;;;8.80;5.68;;;;;;;7.72;81.70;101138.50;343528;28;1339;-72
2022/11/12 00:36:23;;;;;;;12.52;6.10;;;;;;;7.72;81.96;101139.38;343526;28;1612;-72
2022/11/12 00:36:36;;;;;;;14.80;6.50;;;;;;;7.72;82.00;101141.09;342220;28;1419;-72
2022/11/12 00:36:48;;;;;;;19.92;6.70;;;;;;;7.68;82.13;101141.94;341018;29;1028;-72
2022/11/12 00:37:01;;;;;;;34.58;7.13;;;;;;;7.63;81.87;101134.19;341338;29;1768;-72
2022/11/12 00:37:13;;;;;;;35.00;7.30;;;;;;;7.58;82.01;101133.28;341615;28;1748;-72
2022/11/12 00:37:25;;;;;;;27.65;7.18;;;;;;;7.55;81.97;101147.09;342802;28;1949;-72
2022/11/12 00:37:37;;;;;;;33.53;7.35;;;;;;;7.55;82.20;101136.75;343161;28;975;-73
2022/11/12 00:37:54;;;;;;;37.50;7.32;;;;;;;7.53;82.52;101138.47;343634;28;1226;-73
2022/11/12 00:38:06;;;;;;;33.60;6.72;;;;;;;7.55;82.31;101136.75;342428;28;1123;-73
2022/11/12 00:38:18;;;;;;;32.38;6.57;;;;;;;7.46;82.01;101141.88;341394;28;1798;-72
2022/11/12 00:38:30;;;;;;;20.92;6.63;;;;;;;7.44;82.41;101142.72;341027;28;1940;-73
2022/11/12 00:38:42;;;;;;;25.67;7.40;;;;;;;7.45;82.36;101141.88;342542;28;1839;-73
2022/11/12 00:38:54;;;;;;;21.38;7.15;;;;;;;7.50;82.36;101143.59;343308;28;1273;-73
2022/11/12 00:39:06;;;;;;;16.25;6.75;;;;;;;7.51;82.16;101141.91;343302;28;1815;-72
2022/11/12 00:39:17;;;;;;;25.90;7.18;;;;;;;7.49;82.09;101141.88;342383;28;1743;-72
2022/11/12 00:39:29;;;;;;;27.13;7.20;;;;;;;7.48;82.51;101140.16;343164;28;1508;-72
2022/11/12 00:39:41;;;;;;;25.55;6.97;;;;;;;7.47;82.24;101142.75;343969;28;999;-72
2022/11/12 00:39:53;;;;;;;24.20;6.75;;;;;;;7.43;82.80;101148.78;343662;28;1095;-72
2022/11/12 00:40:06;;;;;;;23.83;6.63;;;;;;;7.41;82.75;101141.00;343660;28;1051;-73
2022/11/12 00:40:18;;;;;;;19.35;6.95;;;;;;;7.44;82.84;101148.75;342636;28;1738;-72
2022/11/12 00:40:31;;;;;;;23.80;6.90;;;;;;;7.45;82.57;101134.13;343323;28;1880;-72
2022/11/12 00:40:43;;;;;;;24.55;6.43;;;;;;;7.47;82.49;101143.59;342548;28;977;-73
2022/11/12 00:40:59;;;;;;;25.73;6.40;;;;;;;7.47;82.49;101141.03;343096;28;1263;-73
2022/11/12 00:41:10;;;;;;;27.48;7.13;;;;;;;7.38;82.45;101140.97;342182;28;2114;-73
2022/11/12 00:41:22;;;;;;;37.88;8.80;;;;;;;7.36;82.34;101145.28;343103;28;1507;-73
2022/11/12 00:41:35;;;;;;;51.15;9.07;;;;;;;7.35;82.52;101143.56;343403;28;1846;-72
2022/11/12 00:41:49;;;;;;;37.22;7.88;;;;;;;7.36;82.57;101143.56;343703;28;1196;-72
2022/11/12 00:42:01;;;;;;;34.60;7.72;;;;;;;7.33;82.26;101140.09;343585;28;1978;-72
2022/11/12 00:42:12;;;;;;;31.52;7.30;;;;;;;7.33;82.28;101134.94;343018;28;1728;-72
2022/11/12 00:42:25;;;;;;;25.60;7.13;;;;;;;7.36;82.43;101137.50;342148;28;1696;-71
2022/11/12 00:42:37;;;;;;;25.50;6.97;;;;;;;7.33;82.42;101140.97;341106;28;1223;-72
2022/11/12 00:42:52;;;;;;;36.47;8.00;;;;;;;7.31;82.54;101136.66;342999;28;1079;-72
2022/11/12 00:43:03;;;;;;;30.77;7.80;;;;;;;7.28;82.94;101141.78;342117;28;1695;-72
2022/11/12 00:43:15;;;;;;;21.83;7.40;;;;;;;7.25;82.61;101141.78;342632;28;1184;-72
2022/11/12 00:43:27;;;;;;;18.00;7.82;;;;;;;7.24;82.83;101145.22;342323;28;1263;-72
2022/11/12 00:43:39;;;;;;;16.50;7.97;;;;;;;7.31;82.96;101139.22;342401;28;1598;-72
2022/11/12 00:43:51;;;;;;;31.95;8.30;;;;;;;7.30;83.28;101132.31;342697;28;1859;-72
2022/11/12 00:44:03;;;;;;;37.97;8.40;;;;;;;7.28;83.32;101146.97;342503;28;1169;-72
2022/11/12 00:44:15;;;;;;;35.72;8.60;;;;;;;7.31;83.33;101136.66;342873;28;2123;-72
2022/11/12 00:44:28;;;;;;;18.05;7.90;;;;;;;7.32;83.39;101138.34;343662;28;1915;-72
2022/11/12 00:44:40;;;;;;;20.98;7.50;;;;;;;7.34;83.59;101141.81;343659;28;1118;-72
2022/11/12 00:44:52;;;;;;;23.30;7.45;;;;;;;7.34;83.41;101139.22;343607;28;1102;-72
2022/11/12 00:45:04;;;;;;;21.88;7.47;;;;;;;7.24;83.46;101145.22;343715;28;1213;-72
2022/11/12 00:45:17;;;;;;;21.60;7.40;;;;;;;7.20;83.72;101142.63;342726;28;1544;-72
2022/11/12 00:45:29;;;;;;;23.15;7.63;;;;;;;7.08;83.62;101134.78;342937;28;1941;-72
2022/11/12 00:45:42;;;;;;;26.08;7.63;;;;;;;7.11;83.56;101142.56;342578;28;1008;-72
2022/11/12 00:45:54;;;;;;;21.25;6.63;;;;;;;7.11;83.97;101139.97;342369;28;1521;-72
2022/11/12 00:46:06;;;;;;;19.98;6.57;;;;;;;7.11;83.97;101133.97;342426;28;1063;-73
2022/11/12 00:46:18;;;;;;;19.08;6.90;;;;;;;7.12;84.14;101135.66;342855;28;1549;-73
2022/11/12 00:46:30;;;;;;;19.52;7.45;;;;;;;7.17;83.82;101140.00;341602;28;1899;-73
2022/11/12 00:46:42;;;;;;;20.42;7.40;;;;;;;7.18;84.46;101140.88;341506;29;1118;-73
2022/11/12 00:46:56;;;;;;;16.60;6.97;;;;;;;7.16;84.23;101138.31;341152;29;1039;-73
2022/11/12 00:47:08;;;;;;;15.20;6.85;;;;;;;7.13;84.30;101137.41;341216;28;2210;-73
2022/11/12 00:47:20;;;;;;;15.27;6.97;;;;;;;7.12;83.96;101139.16;341556;28;1665;-73
2022/11/12 00:47:32;;;;;;;24.63;7.38;;;;;;;7.17;83.72;101137.44;341794;28;2445;-73
2022/11/12 00:47:44;;;;;;;28.60;7.50;;;;;;;7.16;84.02;101138.31;342128;28;1298;-73
2022/11/12 00:47:56;;;;;;;27.25;7.53;;;;;;;7.10;84.15;101135.69;341738;28;1732;-73
2022/11/12 00:48:08;;;;;;;21.48;7.65;;;;;;;7.12;84.25;101136.56;342388;28;1204;-73
2022/11/12 00:48:20;;;;;;;16.00;7.38;;;;;;;7.16;84.35;101135.72;341520;28;1706;-73
2022/11/12 00:48:32;;;;;;;15.13;7.00;;;;;;;7.16;84.52;101140.88;341645;28;2003;-73
2022/11/12 00:48:44;;;;;;;20.77;7.00;;;;;;;7.10;83.83;101135.69;342303;28;1637;-73
2022/11/12 00:48:56;;;;;;;24.27;7.28;;;;;;;7.03;83.93;101141.66;341889;28;1015;-73
2022/11/12 00:49:08;;;;;;;26.00;7.50;;;;;;;7.06;84.23;101145.97;342009;28;1255;-72
2022/11/12 00:49:20;;;;;;;26.55;7.55;;;;;;;7.04;84.13;101138.22;341447;28;1953;-72
2022/11/12 00:49:38;;;;;;;22.52;7.10;;;;;;;7.10;83.93;101138.28;342473;28;1906;-73
2022/11/12 00:49:50;;;;;;;19.13;6.50;;;;;;;7.16;84.37;101137.41;342323;28;1096;-72
2022/11/12 00:50:02;;;;;;;19.33;6.40;;;;;;;7.19;84.15;101137.44;342431;28;1291;-72
2022/11/12 00:50:15;;;;;;;25.73;6.57;;;;;;;7.11;84.15;101142.56;341822;28;1911;-72
2022/11/12 00:50:27;;;;;;;43.10;7.60;;;;;;;7.08;84.14;101139.94;340844;28;1593;-73
2022/11/12 00:50:39;;;;;;;42.45;7.57;;;;;;;7.04;83.65;101137.34;342275;28;1069;-73
2022/11/12 00:50:57;;;;;;;29.52;7.13;;;;;;;7.08;84.10;101142.53;342708;28;1619;-73
2022/11/12 00:51:09;;;;;;;17.85;6.88;;;;;;;7.09;84.13;101141.69;342103;28;1019;-73
2022/11/12 00:51:21;;;;;;;21.42;7.25;;;;;;;7.08;84.30;101142.53;342340;28;1841;-73
2022/11/12 00:51:34;;;;;;;19.85;7.35;;;;;;;7.12;84.10;101141.72;343018;28;1845;-72
2022/11/12 00:51:46;;;;;;;22.20;7.30;;;;;;;7.14;84.24;101140.00;342325;28;1195;-72
2022/11/12 00:51:58;;;;;;;21.13;6.93;;;;;;;7.17;84.43;101145.19;342634;28;1068;-73
2022/11/12 00:52:09;;;;;;;21.88;7.22;;;;;;;7.22;84.02;101146.94;342659;28;1075;-72
2022/11/12 00:52:21;;;;;;;20.00;7.68;;;;;;;7.24;84.32;101145.22;342146;28;1533;-72
2022/11/12 00:52:33;;;;;;;21.50;7.70;;;;;;;7.24;84.49;101145.22;342387;28;1863;-72
2022/11/12 00:52:45;;;;;;;19.60;7.65;;;;;;;7.27;84.37;101135.75;343863;28;1126;-72
2022/11/12 00:52:57;;;;;;;19.02;7.70;;;;;;;7.30;83.98;101147.84;342531;28;1953;-72
2022/11/12 00:53:09;;;;;;;15.23;7.53;;;;;;;7.31;84.30;101139.22;342760;28;1772;-72
2022/11/12 00:53:21;;;;;;;18.58;7.53;;;;;;;7.29;83.93;101139.22;342497;28;1387;-72
2022/11/12 00:53:33;;;;;;;23.77;7.33;;;;;;;7.08;83.88;101145.13;343073;28;1063;-72
2022/11/12 00:53:47;;;;;;;24.65;7.25;;;;;;;7.01;83.90;101140.78;343846;28;993;-72
2022/11/12 00:54:00;;;;;;;28.17;7.68;;;;;;;7.05;84.35;101142.53;343603;28;1231;-72
2022/11/12 00:54:12;;;;;;;24.08;7.70;;;;;;;7.06;84.29;101141.66;343708;28;1495;-72
2022/11/12 00:54:24;;;;;;;22.50;7.57;;;;;;;7.05;84.37;101147.72;343752;28;1353;-72
2022/11/12 00:54:37;;;;;;;18.88;7.30;;;;;;;7.07;84.32;101140.81;343313;28;1019;-72
2022/11/12 00:54:49;;;;;;;23.20;7.43;;;;;;;7.09;84.57;101146.88;343700;28;1099;-72
2022/11/12 00:55:01;;;;;;;25.65;7.38;;;;;;;7.12;84.50;101141.72;342774;28;1714;-72
2022/11/12 00:55:13;;;;;;;23.45;7.32;;;;;;;7.16;84.12;101145.16;343649;28;1831;-72
2022/11/12 00:55:25;;;;;;;28.55;7.45;;;;;;;7.09;83.91;101139.13;343249;28;1594;-72
2022/11/12 00:55:37;;;;;;;27.35;7.50;;;;;;;7.13;84.01;101146.03;343261;28;1390;-72
2022/11/12 00:55:49;;;;;;;29.40;7.70;;;;;;;7.17;84.20;101145.19;343670;28;1151;-72
2022/11/12 00:56:06;;;;;;;20.98;7.20;;;;;;;7.23;84.15;101143.50;343084;28;1697;-72
2022/11/12 00:56:18;;;;;;;18.75;7.20;;;;;;;7.26;83.99;101148.69;342602;28;1663;-72
2022/11/12 00:56:30;;;;;;;27.52;7.40;;;;;;;7.12;83.51;101144.31;342940;28;1850;-72
2022/11/12 00:56:46;;;;;;;30.80;7.25;;;;;;;7.11;83.79;101142.56;343829;28;1173;-72
2022/11/12 00:56:59;;;;;;;24.27;7.18;;;;;;;7.16;83.94;101143.47;342328;28;1108;-72
2022/11/12 00:57:11;;;;;;;24.08;6.95;;;;;;;7.15;83.78;101141.72;342362;28;1262;-72
2022/11/12 00:57:23;;;;;;;22.45;7.20;;;;;;;7.19;83.72;101138.31;342296;28;2557;-72
2022/11/12 00:57:35;;;;;;;28.48;8.13;;;;;;;7.25;83.79;101146.97;342568;28;1149;-72
2022/11/12 00:57:47;;;;;;;28.15;8.43;;;;;;;7.29;84.02;101138.34;342578;28;1138;-72
2022/11/12 00:57:59;;;;;;;20.25;7.07;;;;;;;7.30;83.80;101140.06;340738;28;1677;-72
2022/11/12 00:58:12;;;;;;;27.52;7.15;;;;;;;7.31;83.88;101147.00;339849;29;1300;-72
2022/11/12 00:58:24;;;;;;;25.02;7.50;;;;;;;7.35;83.78;101153.91;339277;29;1542;-72
2022/11/12 00:58:37;;;;;;;19.30;7.57;;;;;;;7.38;83.58;101138.38;340848;29;1090;-72
2022/11/12 00:58:49;;;;;;;19.42;7.43;;;;;;;7.42;83.68;101144.44;341017;29;1294;-72
2022/11/12 00:59:01;;;;;;;18.63;7.53;;;;;;;7.40;83.34;101140.13;341260;29;1088;-72
2022/11/12 00:59:13;;;;;;;17.10;7.35;;;;;;;7.41;83.53;101135.81;340912;28;1215;-72